Time;durP1;ratioP1;P1;durP2;ratioP2;P2;SDS_P1;SDS_P2;PMS_P1;PMS_P2;Temp;Humidity;BMP_temperature;BMP_pressure;BME280_temperature;BME280_humidity;BME280_pressure;Samples;Min_cycle;Max_cycle;Signal;HPM_P1;HPM_P2
2022/12/10 00:01:32;;;;;;;53.83;16.35;;;;;;;-0.03;65.48;99893.25;4757455;30;20051;-83
2022/12/10 00:04:03;;;;;;;53.35;16.83;;;;;;;-0.01;66.37;99906.97;4757105;30;20367;-85
2022/12/10 00:06:34;;;;;;;53.28;17.48;;;;;;;-0.16;64.89;99907.28;4742977;30;20177;-83
2022/12/10 00:09:03;;;;;;;58.22;18.05;;;;;;;-0.37;65.62;99926.16;4740486;30;20063;-84
2022/12/10 00:11:30;;;;;;;57.30;17.67;;;;;;;-0.49;65.33;99906.09;4771658;30;20047;-80
2022/12/10 00:13:57;;;;;;;53.65;16.60;;;;;;;-0.35;66.12;99915.97;4732931;30;20040;-80
2022/12/10 00:16:25;;;;;;;51.60;17.48;;;;;;;-0.23;64.46;99959.91;4733107;30;20063;-81
2022/12/10 00:18:52;;;;;;;52.08;17.92;;;;;;;-0.33;65.20;99960.38;4735182;30;20048;-79
2022/12/10 00:21:22;;;;;;;51.67;17.20;;;;;;;-0.55;65.01;99966.38;4737248;30;20040;-79
2022/12/10 00:23:49;;;;;;;44.95;16.60;;;;;;;-0.52;66.30;99966.47;4755155;30;20052;-83
2022/12/10 00:26:18;;;;;;;54.55;17.13;;;;;;;-0.51;66.46;99961.41;4788459;30;20036;-81
2022/12/10 00:28:45;;;;;;;44.78;16.70;;;;;;;-0.48;65.73;99963.22;4770069;30;20044;-80
2022/12/10 00:31:29;;;;;;;44.63;17.45;;;;;;;-0.35;66.33;99964.56;4748190;30;20143;-81
2022/12/10 00:33:57;;;;;;;47.58;17.67;;;;;;;-0.62;66.82;99879.22;4739537;30;20082;-82
2022/12/10 00:36:26;;;;;;;41.83;17.20;;;;;;;-0.19;66.45;99910.59;4759253;30;20063;-81
2022/12/10 00:38:53;;;;;;;38.53;14.95;;;;;;;-0.01;66.53;99904.41;4758782;30;20075;-79
2022/12/10 00:41:19;;;;;;;49.78;16.60;;;;;;;0.17;66.38;99929.75;4785306;30;20062;-84
2022/12/10 00:43:46;;;;;;;40.90;16.02;;;;;;;-0.16;64.51;99908.16;4789768;30;20047;-83
2022/12/10 00:46:15;;;;;;;48.80;16.77;;;;;;;-0.38;65.36;99910.72;4795918;29;20047;-82
2022/12/10 00:48:42;;;;;;;45.65;16.80;;;;;;;-0.27;65.47;99919.69;4765656;30;20047;-83
2022/12/10 00:51:12;;;;;;;49.15;17.60;;;;;;;-0.38;65.08;99929.53;4779760;30;20108;-83
2022/12/10 00:53:39;;;;;;;50.95;17.70;;;;;;;-0.59;66.44;99908.25;4764916;30;20044;-82
2022/12/10 00:56:09;;;;;;;48.72;17.23;;;;;;;-0.55;65.19;99921.19;4768856;30;20079;-80
2022/12/10 00:58:37;;;;;;;57.28;19.00;;;;;;;-1.05;65.19;99872.44;4783752;30;20043;-79
2022/12/10 01:01:16;;;;;;;49.40;18.00;;;;;;;-0.83;65.85;99919.28;4768794;30;20461;-79
2022/12/10 01:03:43;;;;;;;54.33;18.25;;;;;;;-1.00;66.06;99910.94;4775633;30;20051;-80
2022/12/10 01:06:18;;;;;;;48.22;18.33;;;;;;;-0.71;66.77;99917.19;4791847;30;20015;-79
2022/12/10 01:08:45;;;;;;;51.25;18.27;;;;;;;-0.79;67.08;99873.44;4772796;30;20043;-81
2022/12/10 01:11:14;;;;;;;47.92;18.10;;;;;;;-1.00;66.79;99799.44;4774374;29;20027;-84
2022/12/10 01:13:41;;;;;;;54.05;18.27;;;;;;;-0.34;66.44;99875.13;4778781;29;20426;-82
2022/12/10 01:16:09;;;;;;;46.22;17.35;;;;;;;-0.50;65.89;99855.78;4791853;29;20103;-85
2022/12/10 01:18:35;;;;;;;41.92;17.48;;;;;;;-0.58;66.12;99858.88;4791962;30;20077;-78
2022/12/10 01:21:04;;;;;;;42.55;16.02;;;;;;;-0.87;65.09;99817.75;4792400;30;20043;-80
2022/12/10 01:23:35;;;;;;;43.38;15.65;;;;;;;-0.69;64.60;99872.09;4775006;30;20047;-79
2022/12/10 01:26:04;;;;;;;39.83;15.73;;;;;;;-0.62;66.84;99868.09;4798214;29;20066;-80
2022/12/10 01:28:31;;;;;;;41.88;16.30;;;;;;;-0.88;65.14;99850.09;4798253;29;20146;-81
2022/12/10 01:31:07;;;;;;;46.40;16.90;;;;;;;-0.80;66.89;99865.75;4798046;30;20082;-84
2022/12/10 01:33:35;;;;;;;43.92;16.70;;;;;;;-0.62;67.10;99874.09;4751703;30;20086;-80
2022/12/10 01:36:11;;;;;;;47.25;17.17;;;;;;;-0.54;66.95;99876.03;4787256;29;20050;-81
2022/12/10 01:38:37;;;;;;;40.95;16.13;;;;;;;-0.72;67.18;99789.34;4800375;29;20051;-83
2022/12/10 01:41:06;;;;;;;45.17;18.55;;;;;;;-0.71;66.21;99835.41;4797174;29;20078;-82
2022/12/10 01:43:56;;;;;;;47.80;18.65;;;;;;;-0.46;65.99;99860.19;4786902;29;20123;-82
2022/12/10 01:46:26;;;;;;;52.20;18.75;;;;;;;-0.95;65.96;99818.31;4786085;30;20058;-80
2022/12/10 01:48:52;;;;;;;50.85;17.75;;;;;;;-0.79;66.56;99834.25;4798320;29;20043;-81
2022/12/10 01:51:20;;;;;;;48.30;18.67;;;;;;;-0.78;66.60;99843.66;4795250;29;20050;-82
2022/12/10 01:53:47;;;;;;;46.15;18.13;;;;;;;-0.51;66.77;99851.47;4796677;29;20059;-81
2022/12/10 01:56:16;;;;;;;48.63;17.75;;;;;;;-0.19;66.56;99876.47;4800001;29;20083;-80
2022/12/10 01:58:44;;;;;;;41.53;17.25;;;;;;;-0.06;66.41;99891.44;4801810;29;20051;-78
2022/12/10 02:01:52;;;;;;;41.95;17.23;;;;;;;-0.22;66.92;99873.81;4801355;29;20058;-79
2022/12/10 02:04:46;;;;;;;42.53;16.45;;;;;;;-0.08;66.84;99895.63;4814442;29;20051;-82
2022/12/10 02:07:18;;;;;;;42.70;16.63;;;;;;;-0.46;65.71;99883.22;4784171;29;20063;-79
2022/12/10 02:09:55;;;;;;;40.22;16.23;;;;;;;-0.72;66.80;99848.97;4766153;30;20138;-80
2022/12/10 02:12:39;;;;;;;43.85;16.75;;;;;;;-0.82;66.71;99809.44;4778194;30;20050;-80
2022/12/10 02:15:15;;;;;;;44.28;15.73;;;;;;;-0.39;66.60;99863.84;4761829;30;20068;-85
2022/12/10 02:17:54;;;;;;;40.10;14.95;;;;;;;-0.45;65.61;99848.28;4790445;29;20048;-83
2022/12/10 02:20:27;;;;;;;44.38;16.40;;;;;;;-0.43;66.20;99838.09;4757686;30;20047;-83
2022/12/10 02:23:01;;;;;;;39.92;15.32;;;;;;;-0.05;66.27;99882.94;4756969;30;20059;-83
2022/12/10 02:26:09;;;;;;;49.53;16.98;;;;;;;-0.02;66.47;99888.19;4791057;29;20043;-81
2022/12/10 02:29:10;;;;;;;41.38;15.35;;;;;;;0.13;66.53;99892.06;4714501;30;20051;-82
2022/12/10 02:31:39;;;;;;;45.00;16.02;;;;;;;0.07;66.26;99871.41;4757264;30;20086;-83
2022/12/10 02:34:09;;;;;;;42.50;16.45;;;;;;;0.25;67.03;99876.28;4757162;30;20052;-85
2022/12/10 02:36:39;;;;;;;43.35;16.27;;;;;;;0.26;65.27;99889.16;4758098;30;20150;-82
2022/12/10 02:39:10;;;;;;;45.67;17.05;;;;;;;-1.13;65.05;99726.56;4786893;29;20063;-81
2022/12/10 02:41:47;;;;;;;52.78;17.73;;;;;;;-0.22;65.49;99886.59;4774257;30;20102;-82
2022/12/10 02:44:18;;;;;;;54.80;17.38;;;;;;;-0.21;66.34;99885.78;4750143;30;20047;-83
2022/12/10 02:46:47;;;;;;;53.38;17.77;;;;;;;-0.44;66.16;99824.44;4767095;30;20044;-81
2022/12/10 02:49:16;;;;;;;55.22;18.92;;;;;;;0.10;67.32;99872.38;4754219;30;20051;-79
2022/12/10 02:51:43;;;;;;;57.30;18.33;;;;;;;-0.43;65.77;99820.19;4762661;30;20054;-82
2022/12/10 02:54:35;;;;;;;50.42;18.15;;;;;;;-0.19;65.29;99879.03;4772342;30;20426;-82
2022/12/10 02:57:14;;;;;;;58.33;18.48;;;;;;;-0.10;67.26;99884.47;4772284;30;20062;-82
2022/12/10 02:59:48;;;;;;;46.63;16.48;;;;;;;-0.07;66.73;99861.53;4771441;30;20052;-82
2022/12/10 03:02:53;;;;;;;50.90;17.13;;;;;;;-0.04;66.68;99840.34;4742065;30;20051;-83
2022/12/10 03:05:29;;;;;;;46.58;16.40;;;;;;;-0.49;66.47;99772.25;4755100;30;20055;-80
2022/12/10 03:08:03;;;;;;;51.08;16.88;;;;;;;-0.10;64.90;99856.31;4766900;30;20090;-84
2022/12/10 03:10:35;;;;;;;53.75;15.93;;;;;;;-0.41;65.14;99852.69;4796139;29;20051;-81
2022/12/10 03:13:07;;;;;;;45.33;16.13;;;;;;;-0.73;65.58;99825.94;4791940;29;20050;-80
2022/12/10 03:15:34;;;;;;;;;;;;;;;-0.38;67.34;99869.81;4780358;30;20513;-84
2022/12/10 03:18:04;;;;;;;49.58;15.23;;;;;;;-0.22;66.71;99869.53;4787103;29;19921;-82
2022/12/10 03:20:32;;;;;;;45.63;16.42;;;;;;;-0.35;66.25;99823.91;4803926;29;20430;-79
2022/12/10 03:22:59;;;;;;;48.42;17.02;;;;;;;-0.50;65.64;99854.91;4806185;29;20070;-81
2022/12/10 03:25:28;;;;;;;37.35;15.13;;;;;;;-0.53;66.69;99840.31;4818225;29;20035;-78
2022/12/10 03:27:58;;;;;;;50.92;15.90;;;;;;;-0.37;66.68;99849.44;4762853;29;20104;-82
2022/12/10 03:30:24;;;;;;;43.08;14.52;;;;;;;-0.43;66.44;99828.75;4774250;29;20062;-82
2022/12/10 03:32:51;;;;;;;48.53;15.55;;;;;;;-0.19;66.49;99843.22;4789074;29;20058;-81
2022/12/10 03:35:20;;;;;;;41.03;15.65;;;;;;;-0.07;66.54;99843.63;4773945;30;20078;-83
2022/12/10 03:37:49;;;;;;;42.20;15.10;;;;;;;0.05;66.59;99876.47;4758371;29;20047;-81
2022/12/10 03:40:18;;;;;;;47.10;16.08;;;;;;;-0.52;65.35;99829.28;4788321;29;20067;-85
2022/12/10 03:42:44;;;;;;;42.83;15.23;;;;;;;-0.61;66.10;99868.16;4789751;29;20478;-81
2022/12/10 03:45:10;;;;;;;51.47;14.88;;;;;;;-0.58;67.16;99846.09;4774225;30;20035;-84
2022/12/10 03:47:36;;;;;;;52.67;16.02;;;;;;;-0.21;67.43;99868.72;4774122;30;20043;-83
2022/12/10 03:50:04;;;;;;;43.75;13.95;;;;;;;-0.14;67.42;99867.28;4775139;29;20042;-80
2022/12/10 03:52:30;;;;;;;35.55;14.02;;;;;;;0.08;66.01;99889.38;4759617;29;20475;-83
2022/12/10 03:54:56;;;;;;;46.33;14.18;;;;;;;-0.19;65.84;99895.25;4760244;29;20046;-82
2022/12/10 03:57:22;;;;;;;39.70;14.70;;;;;;;-0.58;66.77;99869.94;4768922;30;20039;-83
2022/12/10 03:59:48;;;;;;;48.10;15.60;;;;;;;-0.37;66.96;99885.22;4779536;30;20504;-83
2022/12/10 04:02:14;;;;;;;48.22;15.00;;;;;;;-0.87;67.31;99764.94;4766973;30;20043;-83
2022/12/10 04:04:40;;;;;;;47.13;15.18;;;;;;;-0.23;66.72;99859.28;4776291;29;20119;-81
2022/12/10 04:07:07;;;;;;;50.85;16.17;;;;;;;-0.53;67.43;99795.97;4813444;29;20124;-82
2022/12/10 04:09:33;;;;;;;55.05;16.90;;;;;;;-0.18;67.00;99827.06;4767415;30;20434;-81
2022/12/10 04:11:59;;;;;;;50.85;16.52;;;;;;;0.18;67.41;99844.47;4740443;30;20048;-86
2022/12/10 04:17:12;;;;;;;46.97;18.35;;;;;;;-0.31;66.71;99806.16;4740108;30;20577;-82
2022/12/10 04:19:38;;;;;;;47.65;18.05;;;;;;;-0.44;65.56;99823.59;4754558;30;20070;-84
2022/12/10 04:27:37;;;;;;;41.53;16.88;;;;;;;-0.15;66.81;99865.53;4758859;30;20044;-82
2022/12/10 04:30:07;;;;;;;43.45;16.42;;;;;;;-0.13;66.99;99866.47;4740111;30;20489;-83
2022/12/10 04:32:33;;;;;;;48.35;16.63;;;;;;;-0.10;67.04;99868.25;4755059;30;20059;-84
2022/12/10 04:34:59;;;;;;;39.65;16.13;;;;;;;-0.13;66.23;99870.69;4740463;30;20064;-82
2022/12/10 04:37:27;;;;;;;41.45;16.13;;;;;;;-0.22;67.26;99828.63;4740203;30;20044;-83
2022/12/10 04:39:53;;;;;;;46.05;16.85;;;;;;;0.09;67.42;99844.19;4739429;30;20148;-83
2022/12/10 04:42:21;;;;;;;43.97;16.13;;;;;;;0.21;67.01;99849.72;4784135;29;20052;-85
2022/12/10 04:44:47;;;;;;;45.85;16.27;;;;;;;0.19;67.51;99848.78;4754341;30;20040;-81
2022/12/10 04:47:14;;;;;;;42.05;15.55;;;;;;;0.13;66.62;99820.41;4740706;30;20039;-86
2022/12/10 04:49:40;;;;;;;39.65;15.90;;;;;;;0.21;66.68;99848.84;4784468;29;20536;-83
2022/12/10 04:52:08;;;;;;;42.63;15.30;;;;;;;0.12;66.63;99823.78;4754782;30;20138;-81
2022/12/10 04:54:34;;;;;;;37.08;14.70;;;;;;;0.11;67.05;99817.81;4756203;30;20528;-81
2022/12/10 04:57:00;;;;;;;41.15;14.98;;;;;;;0.25;66.61;99836.22;4754953;30;20043;-84
2022/12/10 04:59:27;;;;;;;47.10;16.40;;;;;;;0.32;66.87;99824.47;4740243;30;20070;-84
2022/12/10 05:01:53;;;;;;;45.28;16.23;;;;;;;0.55;66.38;99853.38;4725472;30;20179;-85
2022/12/10 05:04:19;;;;;;;43.60;15.27;;;;;;;0.28;65.85;99831.19;4769628;30;20039;-83
2022/12/10 05:06:48;;;;;;;51.03;16.27;;;;;;;0.08;65.79;99837.34;4770772;30;20083;-82
2022/12/10 05:09:15;;;;;;;42.70;15.18;;;;;;;0.12;66.19;99850.28;4757611;29;20047;-82
2022/12/10 05:11:44;;;;;;;39.90;16.30;;;;;;;-0.05;66.76;99792.53;4756797;30;20077;-81
2022/12/10 05:14:14;;;;;;;41.10;15.40;;;;;;;0.15;66.09;99798.31;4756950;29;20111;-82
2022/12/10 05:16:41;;;;;;;43.40;16.15;;;;;;;0.38;67.07;99824.69;4772754;29;20051;-82
2022/12/10 05:19:09;;;;;;;45.40;18.73;;;;;;;0.22;66.92;99779.78;4776341;30;20058;-82
2022/12/10 05:24:20;;;;;;;45.35;16.92;;;;;;;0.45;66.41;99843.66;4783351;30;20055;-81
2022/12/10 05:26:50;;;;;;;44.90;18.15;;;;;;;0.41;66.85;99823.91;4767823;29;20486;-85
2022/12/10 05:29:17;;;;;;;49.45;16.67;;;;;;;0.59;65.25;99862.06;4789276;29;20051;-86
2022/12/10 05:31:43;;;;;;;46.80;16.73;;;;;;;0.03;64.90;99820.94;4773068;30;20047;-84
2022/12/10 05:34:10;;;;;;;39.15;15.25;;;;;;;0.19;65.47;99825.75;4772253;30;20043;-84
2022/12/10 05:36:36;;;;;;;48.13;17.13;;;;;;;0.03;66.39;99815.81;4802718;29;20421;-84
2022/12/10 05:39:03;;;;;;;44.35;16.52;;;;;;;-0.08;66.38;99765.16;4789695;29;20073;-84
2022/12/10 05:41:34;;;;;;;51.92;18.13;;;;;;;-0.26;64.87;99801.22;4772595;30;20059;-84
2022/12/10 05:44:00;;;;;;;57.00;18.55;;;;;;;-0.13;66.41;99843.44;4772763;29;20058;-81
2022/12/10 05:46:29;;;;;;;47.13;18.48;;;;;;;-0.02;66.49;99847.22;4773195;29;20046;-85
2022/12/10 05:48:56;;;;;;;46.05;17.70;;;;;;;-0.04;66.69;99822.44;4788462;29;20057;-83
2022/12/10 05:51:46;;;;;;;50.67;18.17;;;;;;;-0.73;66.72;99695.59;4772581;29;20042;-86
2022/12/10 05:54:20;;;;;;;45.60;16.83;;;;;;;-0.52;66.01;99724.47;4772844;30;20158;-84
2022/12/10 05:56:53;;;;;;;50.95;17.70;;;;;;;-1.11;66.37;99630.44;4758217;30;20580;-84
2022/12/10 05:59:19;;;;;;;54.92;18.77;;;;;;;-0.72;66.01;99717.78;4772401;29;20043;-82
2022/12/10 06:01:48;;;;;;;60.25;19.13;;;;;;;-0.36;65.33;99788.91;4756224;30;20047;-81
2022/12/10 06:04:14;;;;;;;55.65;18.95;;;;;;;-0.39;66.34;99778.56;4756400;30;20111;-84
2022/12/10 06:06:43;;;;;;;52.65;18.90;;;;;;;-0.42;66.62;99750.34;4772293;30;20107;-82
2022/12/10 06:09:13;;;;;;;62.70;21.13;;;;;;;0.25;66.63;99819.97;4784848;29;20074;-81
2022/12/10 06:11:42;;;;;;;50.10;18.77;;;;;;;0.55;66.72;99861.06;4768458;30;20160;-85
2022/12/10 06:14:24;;;;;;;49.97;19.00;;;;;;;0.19;66.73;99768.59;4755127;30;20043;-82
2022/12/10 06:16:57;;;;;;;49.63;18.13;;;;;;;0.47;65.46;99842.03;4740809;30;20044;-81
2022/12/10 06:19:24;;;;;;;;;;;;;;;0.54;66.61;99856.78;4770103;30;20061;-80
2022/12/10 06:22:02;;;;;;;51.67;17.73;;;;;;;0.02;66.64;99775.69;4771363;30;19928;-82
2022/12/10 06:24:35;;;;;;;47.97;17.88;;;;;;;-0.50;65.87;99729.63;4743101;30;20138;-81
2022/12/10 06:27:02;;;;;;;51.25;17.00;;;;;;;-0.40;66.03;99715.47;4744378;30;20106;-81
2022/12/10 06:29:29;;;;;;;53.45;17.77;;;;;;;0.53;66.77;99837.13;4757870;30;20047;-83
2022/12/10 06:31:56;;;;;;;55.50;19.65;;;;;;;0.57;66.47;99841.50;4773522;30;20073;-81
2022/12/10 06:34:28;;;;;;;54.05;18.88;;;;;;;0.47;65.81;99839.47;4776262;30;20047;-81
2022/12/10 06:40:44;;;;;;;56.92;18.88;;;;;;;-1.29;66.71;99592.34;4733915;30;20405;-81
2022/12/10 06:43:15;;;;;;;55.97;19.90;;;;;;;-0.61;66.86;99673.00;4722856;30;20055;-82
2022/12/10 06:45:43;;;;;;;58.30;19.92;;;;;;;0.34;65.98;99822.84;4724187;30;20496;-83
2022/12/10 06:48:09;;;;;;;55.60;18.70;;;;;;;0.43;66.49;99830.84;4720716;30;20059;-81
2022/12/10 06:50:36;;;;;;;57.25;19.92;;;;;;;0.44;67.08;99811.19;4721877;30;20052;-85
2022/12/10 06:53:03;;;;;;;57.63;20.13;;;;;;;-0.30;66.15;99702.19;4708305;30;20169;-83
2022/12/10 06:55:30;;;;;;;52.42;17.98;;;;;;;0.58;65.55;99820.19;4707891;30;20155;-82
2022/12/10 06:58:02;;;;;;;58.15;18.48;;;;;;;0.44;66.52;99821.44;4723557;30;20147;-81
2022/12/10 07:00:53;;;;;;;52.17;18.65;;;;;;;0.45;66.03;99849.66;4738442;30;20428;-82
2022/12/10 07:03:22;;;;;;;62.22;21.02;;;;;;;-0.11;66.79;99716.44;4740305;30;20059;-83
2022/12/10 07:06:06;;;;;;;54.80;20.70;;;;;;;0.04;66.77;99728.00;4728094;30;20056;-84
2022/12/10 07:08:51;;;;;;;57.55;19.95;;;;;;;-0.65;66.75;99603.03;4744288;30;20083;-82
2022/12/10 07:11:45;;;;;;;59.55;20.35;;;;;;;0.39;66.85;99731.69;4723375;30;20049;-84
2022/12/10 07:17:52;;;;;;;63.15;19.30;;;;;;;-0.44;65.75;99637.78;4704526;30;20123;-82
2022/12/10 07:21:02;;;;;;;59.45;22.35;;;;;;;0.71;65.33;99841.09;4705526;30;20058;-84
2022/12/10 07:27:18;;;;;;;64.40;21.50;;;;;;;-0.29;66.48;99695.38;4705337;30;20053;-85
2022/12/10 07:29:48;;;;;;;;;;;;;;;0.81;66.97;99827.72;4706869;30;20436;-81
2022/12/10 07:32:22;;;;;;;65.28;22.05;;;;;;;0.50;66.86;99811.41;4696570;30;19953;-84
2022/12/10 07:42:36;;;;;;;71.38;24.80;;;;;;;-0.14;66.06;99611.47;4787597;29;20442;-83
2022/12/10 07:45:16;;;;;;;66.70;24.55;;;;;;;0.74;65.17;99731.88;4774870;30;20047;-85
2022/12/10 07:48:35;;;;;;;65.90;23.13;;;;;;;-0.21;66.25;99591.63;4726842;30;20078;-83
2022/12/10 07:52:22;;;;;;;;;;;;;;;;;;;;;
2022/12/10 08:00:37;;;;;;;93.57;27.67;;;;;;;0.25;65.19;99657.03;4741789;30;20154;-85
2022/12/10 08:03:12;;;;;;;87.40;29.27;;;;;;;-0.38;66.02;99543.41;4731019;30;20080;-86
2022/12/10 08:06:21;;;;;;;81.68;26.75;;;;;;;0.63;65.94;99669.25;4730493;30;20063;-86
2022/12/10 08:13:46;;;;;;;69.00;23.23;;;;;;;1.21;65.21;99825.50;4745231;30;20052;-84
2022/12/10 08:22:57;;;;;;;;;;;;;;;;;;;;;
2022/12/10 08:26:59;;;;;;;68.45;21.27;;;;;;;0.56;64.82;99836.34;4722782;30;20064;-87
2022/12/10 08:30:47;;;;;;;76.15;22.30;;;;;;;0.29;66.75;99734.78;4736150;30;20080;-84
2022/12/10 08:34:17;;;;;;;69.40;22.08;;;;;;;-0.35;66.43;99615.09;4652406;30;20065;-84
2022/12/10 08:38:15;;;;;;;64.18;22.02;;;;;;;1.26;66.90;99810.25;4652227;30;20086;-83
2022/12/10 08:46:51;;;;;;;68.35;22.40;;;;;;;-0.12;66.31;99583.38;4580775;31;20519;-84
2022/12/10 08:54:34;;;;;;;;;;;;;;;;;;;;;
2022/12/10 09:25:28;;;;;;;79.45;25.73;;;;;;;0.19;66.44;99589.44;4679624;30;20128;-84
2022/12/10 09:32:53;;;;;;;83.22;26.25;;;;;;;0.27;65.06;99591.38;4652499;30;20150;-83
2022/12/10 09:41:48;;;;;;;75.40;24.45;;;;;;;1.97;66.17;99794.22;5039323;24;20499;-84
2022/12/10 09:48:54;;;;;;;;;;;;;;;;;;;;;
2022/12/10 09:52:45;;;;;;;82.60;28.30;;;;;;;0.75;65.80;99572.22;4755674;30;20162;-84
2022/12/10 09:55:52;;;;;;;72.50;22.25;;;;;;;2.18;65.08;99790.47;4752246;30;20696;-85
2022/12/10 10:04:13;;;;;;;71.32;21.13;;;;;;;1.74;65.18;99689.28;4806699;29;20095;-83
2022/12/10 10:17:20;;;;;;;120.35;28.85;;;;;;;1.38;63.44;99708.03;4744852;30;20146;-82
2022/12/10 10:25:54;;;;;;;97.10;27.17;;;;;;;1.05;64.98;99627.72;4774625;29;20057;-85
2022/12/10 10:28:50;;;;;;;87.43;23.92;;;;;;;0.64;65.06;99542.03;4810064;29;20050;-84
2022/12/10 10:35:12;;;;;;;73.28;22.15;;;;;;;2.16;65.75;99743.34;4805748;29;20418;-84
2022/12/10 10:38:10;;;;;;;82.32;21.10;;;;;;;1.58;65.27;99653.84;4795114;29;20602;-82
2022/12/10 10:41:15;;;;;;;65.18;20.35;;;;;;;0.82;64.87;99501.53;4778381;29;20063;-84
2022/12/10 10:43:50;;;;;;;74.85;24.23;;;;;;;2.14;65.33;99733.06;4778381;29;20145;-84
2022/12/10 10:46:52;;;;;;;57.92;21.63;;;;;;;1.21;65.09;99581.97;4763555;29;20505;-84
2022/12/10 10:49:56;;;;;;;95.80;25.55;;;;;;;0.68;64.19;99511.41;4768485;29;20047;-83
2022/12/10 10:53:56;;;;;;;91.28;26.50;;;;;;;1.86;65.20;99754.59;4792352;29;20180;-83
2022/12/10 10:56:46;;;;;;;65.85;21.45;;;;;;;1.25;64.95;99655.56;4716108;29;20049;-81
2022/12/10 10:59:21;;;;;;;110.97;25.25;;;;;;;1.63;64.60;99747.19;4812243;29;20421;-85
2022/12/10 11:02:02;;;;;;;71.35;21.70;;;;;;;0.82;65.96;99591.19;4780128;29;20051;-88
2022/12/10 11:04:44;;;;;;;83.85;23.40;;;;;;;0.85;65.73;99581.03;4778338;29;20047;-85
2022/12/10 11:07:36;;;;;;;102.82;25.25;;;;;;;1.52;65.36;99746.88;4756628;30;20122;-82
2022/12/10 11:10:43;;;;;;;89.50;25.20;;;;;;;1.36;66.37;99737.91;4732969;30;20075;-84
2022/12/10 11:13:30;;;;;;;125.93;26.17;;;;;;;0.25;65.30;99587.91;4723030;30;20098;-84
2022/12/10 11:16:01;;;;;;;122.22;29.63;;;;;;;0.87;65.89;99681.88;4738270;30;20067;-83
2022/12/10 11:18:31;;;;;;;90.97;26.00;;;;;;;1.17;67.17;99716.88;4752912;30;20127;-83
2022/12/10 11:21:05;;;;;;;104.40;27.27;;;;;;;1.12;66.86;99709.88;4753514;30;20060;-85
2022/12/10 11:23:47;;;;;;;78.38;24.75;;;;;;;0.14;66.93;99530.41;4739170;30;20102;-85
2022/12/10 11:26:54;;;;;;;76.68;25.45;;;;;;;1.37;67.14;99721.69;4738566;30;20097;-84
2022/12/10 11:32:54;;;;;;;;;;;;;;;1.49;67.85;99698.91;4732862;30;20064;-81
2022/12/10 11:35:43;;;;;;;56.28;18.70;;;;;;;1.55;66.70;99694.78;4743111;30;19933;-81
2022/12/10 11:38:28;;;;;;;57.45;19.67;;;;;;;1.56;67.49;99691.41;4759122;29;20058;-82
2022/12/10 11:41:50;;;;;;;57.50;18.42;;;;;;;1.53;67.02;99686.19;4772407;29;20066;-81
2022/12/10 11:44:26;;;;;;;63.70;20.43;;;;;;;1.39;68.04;99653.38;4733551;30;20042;-81
2022/12/10 11:47:28;;;;;;;60.55;19.48;;;;;;;1.68;67.68;99676.31;4789470;30;20307;-80
2022/12/10 11:50:35;;;;;;;55.38;18.52;;;;;;;1.65;67.38;99671.13;4766601;29;20055;-87
2022/12/10 11:53:33;;;;;;;58.20;19.30;;;;;;;1.69;67.56;99683.19;4802330;29;20039;-83
2022/12/10 11:56:44;;;;;;;58.13;20.02;;;;;;;1.67;66.77;99669.44;4777374;29;20082;-85
2022/12/10 11:59:28;;;;;;;48.25;18.08;;;;;;;1.70;66.66;99697.75;4746123;29;20188;-88
2022/12/10 12:02:19;;;;;;;56.13;18.02;;;;;;;1.44;67.09;99668.88;4761689;29;20095;-88
2022/12/10 12:05:20;;;;;;;53.42;17.67;;;;;;;0.09;67.40;99478.25;4760625;29;20050;-85
2022/12/10 12:08:28;;;;;;;56.35;21.17;;;;;;;1.14;67.63;99670.66;4759908;29;20074;-86
2022/12/10 12:11:27;;;;;;;43.47;18.48;;;;;;;-0.29;66.65;99432.84;4765578;29;20031;-83
2022/12/10 12:14:20;;;;;;;49.65;19.00;;;;;;;1.21;68.67;99674.25;4765330;29;20081;-86
2022/12/10 12:17:00;;;;;;;48.58;17.48;;;;;;;0.58;67.53;99535.91;4793764;29;20123;-84
2022/12/10 12:19:38;;;;;;;46.88;18.05;;;;;;;0.20;67.58;99464.06;4795011;29;20047;-85
2022/12/10 12:22:39;;;;;;;54.58;20.27;;;;;;;-0.07;67.51;99447.09;4768042;29;20078;-85
2022/12/10 12:25:17;;;;;;;57.42;20.05;;;;;;;0.37;68.24;99486.69;4805846;29;20038;-86
2022/12/10 12:28:11;;;;;;;61.50;20.33;;;;;;;0.96;68.34;99596.69;4795069;29;20030;-84
2022/12/10 12:30:41;;;;;;;63.72;21.73;;;;;;;1.22;67.80;99631.53;4793455;29;20043;-86
2022/12/10 12:33:27;;;;;;;55.03;22.00;;;;;;;0.31;68.18;99466.06;4780818;29;20172;-86
2022/12/10 12:36:08;;;;;;;66.85;20.95;;;;;;;0.96;67.24;99632.56;4777504;29;20584;-84
2022/12/10 12:38:55;;;;;;;54.03;19.42;;;;;;;-0.09;68.95;99464.09;4810224;29;20092;-87
2022/12/10 12:42:06;;;;;;;56.13;19.95;;;;;;;-0.45;67.90;99375.28;4792298;29;20039;-84
2022/12/10 12:44:45;;;;;;;51.60;19.13;;;;;;;1.18;68.23;99653.66;4765359;29;20058;-82
2022/12/10 12:48:14;;;;;;;55.97;20.58;;;;;;;1.09;68.12;99656.84;4775437;29;20049;-82
2022/12/10 12:51:03;;;;;;;56.38;20.50;;;;;;;1.18;68.70;99648.53;4778209;29;20082;-85
2022/12/10 12:53:35;;;;;;;58.10;20.90;;;;;;;0.57;68.04;99557.22;4776469;29;20141;-84
2022/12/10 12:56:45;;;;;;;58.10;20.08;;;;;;;1.11;68.38;99642.38;4775661;29;20062;-84
2022/12/10 12:59:39;;;;;;;62.47;21.95;;;;;;;1.31;69.05;99642.03;4806412;29;20062;-83
2022/12/10 13:02:47;;;;;;;56.95;20.33;;;;;;;1.37;68.19;99643.88;4791222;29;20140;-84
2022/12/10 13:05:38;;;;;;;49.42;18.33;;;;;;;1.37;67.56;99642.19;4807849;29;20042;-84
2022/12/10 13:08:19;;;;;;;52.58;18.45;;;;;;;1.48;69.42;99645.03;4775345;29;20050;-83
2022/12/10 13:11:13;;;;;;;49.78;18.55;;;;;;;0.94;68.77;99566.75;4776591;30;20546;-82
2022/12/10 13:14:14;;;;;;;50.85;17.95;;;;;;;1.28;69.09;99606.94;4789057;29;20053;-80
2022/12/10 13:20:55;;;;;;;57.55;19.67;;;;;;;1.56;68.85;99640.94;4765016;30;20050;-84
2022/12/10 13:23:55;;;;;;;52.70;20.23;;;;;;;-0.04;67.79;99400.28;4752949;29;20055;-83
2022/12/10 13:26:32;;;;;;;61.15;22.40;;;;;;;0.15;67.75;99447.69;4780357;29;20066;-84
2022/12/10 13:29:41;;;;;;;55.65;20.35;;;;;;;0.88;69.17;99558.06;4771024;30;20107;-83
2022/12/10 13:32:22;;;;;;;48.03;17.35;;;;;;;1.13;68.64;99606.53;4750853;29;20213;-84
2022/12/10 13:35:08;;;;;;;44.65;17.50;;;;;;;1.26;68.76;99638.47;4785672;30;20064;-83
2022/12/10 13:37:40;;;;;;;46.13;19.45;;;;;;;1.14;68.69;99639.91;4806473;29;20047;-86
2022/12/10 13:40:09;;;;;;;48.92;18.42;;;;;;;1.07;69.00;99632.88;4762147;29;20407;-85
2022/12/10 14:03:44;;;;;;;50.28;21.17;;;;;;;1.12;70.20;99613.34;4802949;29;20058;-84
2022/12/10 14:06:36;;;;;;;46.30;20.27;;;;;;;0.34;70.63;99477.22;4758603;29;20068;-84
2022/12/10 14:13:32;;;;;;;50.30;20.60;;;;;;;0.81;69.95;99504.91;4791054;29;20546;-84
2022/12/10 14:16:13;;;;;;;53.53;20.70;;;;;;;1.30;69.97;99617.22;4782502;29;20043;-83
2022/12/10 14:19:14;;;;;;;36.80;16.92;;;;;;;1.43;70.36;99592.75;4765432;30;20027;-84
2022/12/10 14:22:30;;;;;;;40.05;17.65;;;;;;;-0.18;70.29;99349.59;4768560;29;20055;-85
2022/12/10 14:25:14;;;;;;;41.30;17.00;;;;;;;1.43;69.97;99611.59;4797174;29;20073;-85
2022/12/10 14:27:40;;;;;;;39.83;16.65;;;;;;;1.48;70.65;99596.31;4782753;29;20470;-83
2022/12/10 14:30:19;;;;;;;42.65;17.05;;;;;;;0.05;69.76;99343.38;4799383;29;20236;-83
2022/12/10 14:32:47;;;;;;;39.10;17.20;;;;;;;1.34;70.51;99525.03;4779783;29;20095;-83
2022/12/10 14:35:33;;;;;;;34.13;16.27;;;;;;;1.47;70.80;99509.94;4810106;29;20069;-82
2022/12/10 14:38:33;;;;;;;33.03;15.80;;;;;;;1.60;69.22;99572.66;4789266;29;20141;-84
2022/12/10 14:41:02;;;;;;;32.53;15.82;;;;;;;1.16;70.50;99530.59;4752647;30;20067;-84
2022/12/10 14:43:40;;;;;;;36.38;15.95;;;;;;;1.01;71.16;99477.25;4763262;30;20134;-83
2022/12/10 14:56:28;;;;;;;52.05;25.58;;;;;;;0.19;70.74;99361.66;4644287;30;20420;-82
2022/12/10 14:59:25;;;;;;;58.20;27.33;;;;;;;1.38;70.66;99525.97;4638140;30;20150;-84
2022/12/10 15:02:27;;;;;;;50.03;24.80;;;;;;;-0.05;70.84;99263.81;4623252;30;20070;-83
2022/12/10 15:05:59;;;;;;;44.97;19.73;;;;;;;1.43;70.59;99523.53;4676779;30;20434;-83
2022/12/10 15:09:07;;;;;;;;;;;;;;;;;;;;;
2022/12/10 15:12:27;;;;;;;40.85;17.92;;;;;;;1.34;70.39;99506.22;4782741;29;20047;-83
2022/12/10 15:16:35;;;;;;;42.10;18.33;;;;;;;1.25;70.30;99511.13;4775598;29;20048;-82
2022/12/10 15:20:49;;;;;;;;;;;;;;;;;;;;;